createdAt,value
2022-12-20T00:04:38.755Z,-0.41
2022-12-20T00:09:41.993Z,-0.27
2022-12-20T00:30:06.838Z,-0.13
2022-12-20T00:35:10.999Z,-0.06
2022-12-20T00:40:14.322Z,0.06
2022-12-20T00:45:17.579Z,0.17
2022-12-20T00:50:20.816Z,0.22
2022-12-20T00:55:23.995Z,0.23
2022-12-20T01:00:27.180Z,0.23
2022-12-20T01:05:31.555Z,0.26
2022-12-20T01:10:34.732Z,0.33
2022-12-20T01:15:38.043Z,0.42
2022-12-20T01:20:41.280Z,0.50
2022-12-20T01:25:45.025Z,0.52
2022-12-20T01:30:48.297Z,0.51
2022-12-20T01:36:03.514Z,0.54
2022-12-20T01:41:07.007Z,0.59
2022-12-20T01:46:10.928Z,0.68
2022-12-20T01:51:15.764Z,0.75
2022-12-20T01:56:19.149Z,0.77
2022-12-20T02:01:25.896Z,0.76
2022-12-20T02:06:30.727Z,0.78
2022-12-20T02:12:10.349Z,0.80
2022-12-20T02:17:38.134Z,0.88
2022-12-20T02:23:13.272Z,0.93
2022-12-20T02:28:25.759Z,0.94
2022-12-20T02:33:28.932Z,0.92
2022-12-20T02:38:34.794Z,0.93
2022-12-20T02:44:01.320Z,1.00
2022-12-20T02:49:13.314Z,1.08
2022-12-20T02:54:18.085Z,1.12
2022-12-20T02:59:55.708Z,1.14
2022-12-20T03:04:59.561Z,1.15
2022-12-20T03:10:03.427Z,1.17
2022-12-20T03:15:07.183Z,1.21
2022-12-20T03:20:12.229Z,1.28
2022-12-20T03:25:15.861Z,1.32
2022-12-20T03:30:19.389Z,1.33
2022-12-20T03:35:22.783Z,1.34
2022-12-20T03:40:26.127Z,1.33
2022-12-20T03:45:29.483Z,1.37
2022-12-20T03:50:32.994Z,1.44
2022-12-20T03:55:37.013Z,1.48
2022-12-20T04:00:40.315Z,1.48
2022-12-20T04:06:23.520Z,1.45
2022-12-20T04:11:27.181Z,1.47
2022-12-20T04:16:49.660Z,1.51
2022-12-20T04:22:02.713Z,1.60
2022-12-20T04:27:15.409Z,1.71
2022-12-20T04:32:19.122Z,1.75
2022-12-20T04:37:22.597Z,1.68
2022-12-20T04:42:28.782Z,1.65
2022-12-20T04:47:32.335Z,1.64
2022-12-20T04:52:54.557Z,1.68
2022-12-20T04:58:03.619Z,1.72
2022-12-20T05:03:11.135Z,1.71
2022-12-20T05:08:14.805Z,1.67
2022-12-20T05:13:18.198Z,1.67
2022-12-20T05:18:22.576Z,1.74
2022-12-20T05:23:54.152Z,1.83
2022-12-20T05:28:59.105Z,1.86
2022-12-20T05:34:02.818Z,1.89
2022-12-20T05:39:08.457Z,1.87
2022-12-20T05:44:15.421Z,1.87
2022-12-20T05:49:20.660Z,1.88
2022-12-20T05:54:25.744Z,1.91
2022-12-20T05:59:42.022Z,1.93
2022-12-20T06:04:51.193Z,1.94
2022-12-20T06:09:59.939Z,1.92
2022-12-20T06:15:15.945Z,1.90
2022-12-20T06:20:19.328Z,1.93
2022-12-20T06:25:24.812Z,1.99
2022-12-20T06:30:33.616Z,2.03
2022-12-20T06:35:55.015Z,2.03
2022-12-20T06:40:59.448Z,2.01
2022-12-20T06:46:02.772Z,2.00
2022-12-20T06:51:07.019Z,2.02
2022-12-20T06:56:10.215Z,2.09
2022-12-20T07:01:13.438Z,2.17
2022-12-20T07:06:16.740Z,2.22
2022-12-20T07:11:19.848Z,2.23
2022-12-20T07:16:23.072Z,2.23
2022-12-20T07:21:26.345Z,2.25
2022-12-20T07:26:29.786Z,2.30
2022-12-20T07:31:33.017Z,2.40
2022-12-20T07:36:36.276Z,2.46
2022-12-20T07:41:40.353Z,2.53
2022-12-20T07:46:48.458Z,2.53
2022-12-20T07:51:57.001Z,2.56
2022-12-20T07:57:05.136Z,2.61
2022-12-20T08:02:15.918Z,2.67
2022-12-20T08:07:19.287Z,2.70
2022-12-20T08:12:23.117Z,2.70
2022-12-20T08:17:26.350Z,2.69
2022-12-20T08:22:29.528Z,2.68
2022-12-20T08:27:32.731Z,2.71
2022-12-20T08:32:36.590Z,2.77
2022-12-20T08:37:40.849Z,2.84
2022-12-20T08:42:43.977Z,2.90
2022-12-20T08:47:48.068Z,2.96
2022-12-20T08:52:51.239Z,3.01
2022-12-20T08:57:54.319Z,3.06
2022-12-20T09:02:57.641Z,3.12
2022-12-20T09:08:01.194Z,3.18
2022-12-20T09:13:04.299Z,3.24
2022-12-20T09:18:07.494Z,3.33
2022-12-20T09:23:10.990Z,3.40
2022-12-20T09:28:14.121Z,3.49
2022-12-20T09:33:17.302Z,3.57
2022-12-20T09:38:20.701Z,3.68
2022-12-20T09:43:24.738Z,3.77
2022-12-20T09:48:34.797Z,3.92
2022-12-20T09:53:48.824Z,4.00
2022-12-20T09:59:30.391Z,4.03
2022-12-20T10:04:36.373Z,4.06
2022-12-20T10:09:55.048Z,4.11
2022-12-20T10:15:09.795Z,4.16
2022-12-20T10:20:24.241Z,4.32
2022-12-20T10:25:35.044Z,4.43
2022-12-20T10:30:38.177Z,4.48
2022-12-20T10:35:43.464Z,4.46
2022-12-20T10:41:21.209Z,4.47
2022-12-20T10:46:19.821Z,4.49
2022-12-20T10:51:23.217Z,4.50
2022-12-20T10:56:56.870Z,4.50
2022-12-20T11:02:00.371Z,4.49
2022-12-20T11:07:25.031Z,4.48
2022-12-20T11:12:28.667Z,4.49
2022-12-20T11:17:38.870Z,4.48
2022-12-20T11:22:54.343Z,4.45
2022-12-20T11:28:33.025Z,4.37
2022-12-20T11:33:59.538Z,4.27
2022-12-20T11:39:05.667Z,4.21
2022-12-20T11:44:26.207Z,4.26
2022-12-20T11:49:36.113Z,4.32
2022-12-20T11:54:48.259Z,4.31
2022-12-20T11:59:56.084Z,4.33
2022-12-20T12:05:04.460Z,4.38
2022-12-20T12:10:30.299Z,4.50
2022-12-20T12:15:37.600Z,4.69
2022-12-20T12:21:09.980Z,4.84
2022-12-20T12:26:29.451Z,4.98
2022-12-20T12:31:40.745Z,5.04
2022-12-20T12:37:12.594Z,4.99
2022-12-20T12:42:28.046Z,4.91
2022-12-20T12:48:00.349Z,4.85
2022-12-20T12:53:19.799Z,4.82
2022-12-20T12:58:22.958Z,4.76
2022-12-20T13:03:54.642Z,4.63
2022-12-20T13:09:00.672Z,4.54
2022-12-20T13:14:15.748Z,4.49
2022-12-20T13:19:36.795Z,4.47
2022-12-20T13:24:59.940Z,4.46
2022-12-20T13:30:15.928Z,4.44
2022-12-20T13:35:25.628Z,4.48
2022-12-20T13:40:50.412Z,4.48
2022-12-20T13:46:12.093Z,4.40
2022-12-20T13:51:21.303Z,4.38
2022-12-20T13:56:27.684Z,4.45
2022-12-20T14:01:34.907Z,4.55
2022-12-20T14:06:38.334Z,4.59
2022-12-20T14:11:47.954Z,4.54
2022-12-20T14:16:51.195Z,4.45
2022-12-20T14:21:54.867Z,4.34
2022-12-20T14:26:58.132Z,4.15
2022-12-20T14:32:01.221Z,4.06
2022-12-20T14:37:28.800Z,4.08
2022-12-20T14:42:37.417Z,4.16
2022-12-20T14:48:07.669Z,4.07
2022-12-20T14:53:34.343Z,3.95
2022-12-20T14:58:40.888Z,3.86
2022-12-20T15:03:55.893Z,3.85
2022-12-20T15:08:59.201Z,3.88
2022-12-20T15:14:04.538Z,3.93
2022-12-20T15:19:10.098Z,4.01
2022-12-20T15:24:21.950Z,4.03
2022-12-20T15:29:27.912Z,4.00
2022-12-20T15:34:35.343Z,3.91
2022-12-20T15:39:38.702Z,3.79
2022-12-20T15:44:42.655Z,3.67
2022-12-20T15:49:50.033Z,3.64
2022-12-20T15:54:53.947Z,3.69
2022-12-20T16:00:02.416Z,3.80
2022-12-20T16:05:14.847Z,3.84
2022-12-20T16:10:18.296Z,3.83
2022-12-20T16:15:23.221Z,3.80
2022-12-20T16:20:27.762Z,3.75
2022-12-20T16:25:33.754Z,3.73
2022-12-20T16:30:37.026Z,3.73
2022-12-20T16:35:40.202Z,3.73
2022-12-20T16:40:43.358Z,3.74
2022-12-20T16:45:46.645Z,3.71
2022-12-20T16:50:49.798Z,3.67
2022-12-20T16:55:52.932Z,3.65
2022-12-20T17:00:56.111Z,3.66
2022-12-20T17:05:59.264Z,3.67
2022-12-20T17:11:02.461Z,3.70
2022-12-20T17:16:06.167Z,3.74
2022-12-20T17:21:31.391Z,3.71
2022-12-20T17:26:35.165Z,3.63
2022-12-20T17:31:40.984Z,3.59
2022-12-20T17:36:44.734Z,3.62
2022-12-20T17:41:49.675Z,3.64
2022-12-20T17:46:53.696Z,3.60
2022-12-20T17:51:56.858Z,3.65
2022-12-20T17:57:00.143Z,3.62
2022-12-20T18:02:03.356Z,3.59
2022-12-20T18:07:06.737Z,3.52
2022-12-20T18:12:10.784Z,3.56
2022-12-20T18:17:14.026Z,3.68
2022-12-20T18:22:17.219Z,3.76
2022-12-20T18:27:23.855Z,3.79
2022-12-20T18:32:31.943Z,3.76
2022-12-20T18:37:35.123Z,3.73
2022-12-20T18:42:38.207Z,3.69
2022-12-20T18:47:41.329Z,3.67
2022-12-20T18:52:47.126Z,3.68
2022-12-20T18:57:50.533Z,3.76
2022-12-20T19:02:56.802Z,3.77
2022-12-20T19:08:01.045Z,3.76
2022-12-20T19:13:06.133Z,3.73
2022-12-20T19:18:09.634Z,3.70
2022-12-20T19:23:12.890Z,3.69
2022-12-20T19:28:16.079Z,3.74
2022-12-20T19:33:19.783Z,3.77
2022-12-20T19:38:23.009Z,3.77
2022-12-20T19:43:26.191Z,3.75
2022-12-20T19:48:29.391Z,3.71
2022-12-20T19:53:33.319Z,3.64
2022-12-20T19:58:37.409Z,3.57
2022-12-20T20:03:41.182Z,3.62
2022-12-20T20:08:45.786Z,3.71
2022-12-20T20:13:49.114Z,3.73
2022-12-20T20:18:52.748Z,3.69
2022-12-20T20:23:56.280Z,3.65
2022-12-20T20:29:01.945Z,3.58
2022-12-20T20:34:05.194Z,3.55
2022-12-20T20:39:08.383Z,3.60
2022-12-20T20:44:12.448Z,3.67
2022-12-20T20:49:15.674Z,3.73
2022-12-20T20:54:18.813Z,3.72
2022-12-20T20:59:22.934Z,3.65
2022-12-20T21:04:26.090Z,3.61
2022-12-20T21:09:29.271Z,3.62
2022-12-20T21:15:10.677Z,3.71
2022-12-20T21:19:55.449Z,3.74
2022-12-20T21:24:59.256Z,3.69
2022-12-20T21:30:02.389Z,3.64
2022-12-20T21:35:06.335Z,3.58
2022-12-20T21:40:10.326Z,3.60
2022-12-20T21:45:13.428Z,3.57
2022-12-20T21:50:16.689Z,3.64
2022-12-20T21:55:20.657Z,3.77
2022-12-20T22:00:23.935Z,3.80
2022-12-20T22:05:27.336Z,3.80
2022-12-20T22:10:30.633Z,3.69
2022-12-20T22:15:33.934Z,3.62
2022-12-20T22:20:37.234Z,3.61
2022-12-20T22:25:40.923Z,3.67
2022-12-20T22:30:44.088Z,3.74
2022-12-20T22:35:48.626Z,3.80
2022-12-20T22:40:56.163Z,3.79
2022-12-20T22:51:22.922Z,3.69
2022-12-20T22:56:26.927Z,3.67
2022-12-20T23:01:30.273Z,3.70
2022-12-20T23:06:33.453Z,3.73
2022-12-20T23:11:55.118Z,3.75
2022-12-20T23:16:58.722Z,3.66
2022-12-20T23:22:20.662Z,3.56
2022-12-20T23:27:25.038Z,3.52
2022-12-20T23:32:29.108Z,3.55
2022-12-20T23:37:32.285Z,3.65
2022-12-20T23:42:35.455Z,3.67
2022-12-20T23:47:38.933Z,3.58
2022-12-20T23:52:41.976Z,3.46
2022-12-20T23:57:45.084Z,3.38
